Time;durP1;ratioP1;P1;durP2;ratioP2;P2;SDS_P1;SDS_P2;PMS_P1;PMS_P2;Temp;Humidity;BMP_temperature;BMP_pressure;BME280_temperature;BME280_humidity;BME280_pressure;Samples;Min_cycle;Max_cycle;Signal;HPM_P1;HPM_P2
2022/01/18 00:01:51;;;;;;;;;;;-0.40;69.00;;;;;;5034796;28;19925;-76
2022/01/18 00:04:19;;;;;;;;;;;-0.50;69.20;;;;;;5033133;28;19921;-81
2022/01/18 00:06:49;;;;;;;;;;;-0.60;69.80;;;;;;5029492;28;20524;-78
2022/01/18 00:09:20;;;;;;;;;;;-0.60;70.00;;;;;;5033579;28;19925;-80
2022/01/18 00:11:55;;;;;;;;;;;-0.60;70.40;;;;;;5032899;28;20052;-80
2022/01/18 00:14:38;;;;;;;;;;;-0.60;70.60;;;;;;5034098;28;19932;-78
2022/01/18 00:17:17;;;;;;;;;;;-0.60;70.20;;;;;;5021961;28;19971;-78
2022/01/18 00:19:53;;;;;;;;;;;-0.60;70.10;;;;;;5018865;28;19925;-78
2022/01/18 00:22:21;;;;;;;;;;;-0.70;69.50;;;;;;5030217;28;19925;-76
2022/01/18 00:24:48;;;;;;;;;;;-0.70;69.60;;;;;;5025451;28;19922;-79
2022/01/18 00:27:16;;;;;;;;;;;-0.70;70.10;;;;;;5028539;28;19921;-76
2022/01/18 00:29:59;;;;;;;;;;;-0.70;70.60;;;;;;5048483;28;19933;-75
2022/01/18 00:35:05;;;;;;;;;;;-0.70;70.50;;;;;;5033658;28;19925;-77
2022/01/18 00:37:35;;;;;;;;;;;-0.70;71.10;;;;;;5036746;28;19971;-79
2022/01/18 00:40:05;;;;;;;;;;;-0.70;71.60;;;;;;5031448;28;19963;-80
2022/01/18 00:42:33;;;;;;;;;;;-0.70;71.40;;;;;;5031907;28;19921;-79
2022/01/18 00:44:59;;;;;;;;;;;-0.70;71.20;;;;;;5031920;28;20348;-76
2022/01/18 00:47:26;;;;;;;;;;;-0.70;71.30;;;;;;5048466;28;19928;-76
2022/01/18 00:50:00;;;;;;;;;;;-0.70;71.40;;;;;;5020000;28;19922;-77
2022/01/18 00:52:29;;;;;;;;;;;-0.70;71.60;;;;;;5032346;28;20011;-76
2022/01/18 00:54:56;;;;;;;;;;;-0.60;71.90;;;;;;5048933;28;19924;-78
2022/01/18 00:57:22;;;;;;;;;;;-0.60;71.50;;;;;;5032994;28;19947;-78
2022/01/18 00:59:49;;;;;;;;;;;-0.60;71.30;;;;;;5026202;28;19922;-75
2022/01/18 01:02:17;;;;;;;;;;;-0.60;71.50;;;;;;5041419;28;19925;-80
2022/01/18 01:04:48;;;;;;;;;;;-0.60;71.20;;;;;;5031901;28;19921;-76
2022/01/18 01:07:20;;;;;;;;;;;-0.70;71.50;;;;;;5032892;28;20385;-75
2022/01/18 01:09:47;;;;;;;;;;;-0.70;71.60;;;;;;5032543;28;19924;-80
2022/01/18 01:12:16;;;;;;;;;;;-0.80;73.10;;;;;;5045513;28;19968;-76
2022/01/18 01:14:45;;;;;;;;;;;-0.80;72.10;;;;;;5025712;28;19971;-75
2022/01/18 01:17:29;;;;;;;;;;;-0.90;72.20;;;;;;5037116;28;20377;-76
2022/01/18 01:34:02;;;;;;;;;;;-0.70;73.00;;;;;;5061720;28;19925;-76
2022/01/18 01:44:44;;;;;;;;;;;-0.80;73.10;;;;;;5058958;28;19925;-76
2022/01/18 01:47:13;;;;;;;;;;;-0.90;72.90;;;;;;5030390;28;19964;-76
2022/01/18 01:49:40;;;;;;;;;;;-0.90;73.40;;;;;;5043688;28;19921;-77
2022/01/18 01:52:08;;;;;;;;;;;-1.00;74.00;;;;;;5045656;28;19920;-76
2022/01/18 01:54:35;;;;;;;;;;;-1.10;74.10;;;;;;5030375;28;19946;-80
2022/01/18 01:57:02;;;;;;;;;;;-1.20;74.20;;;;;;5043166;28;19921;-76
2022/01/18 01:59:29;;;;;;;;;;;-1.20;73.80;;;;;;5043264;28;20380;-76
2022/01/18 02:01:56;;;;;;;;;;;-1.20;74.10;;;;;;5041364;28;19924;-78
2022/01/18 02:04:23;;;;;;;;;;;-1.20;74.60;;;;;;5042003;28;20296;-80
2022/01/18 02:06:50;;;;;;;;;;;-1.10;74.90;;;;;;5042390;28;19921;-80
2022/01/18 02:09:18;;;;;;;;;;;-1.10;74.60;;;;;;5069924;28;19970;-79
2022/01/18 02:11:50;;;;;;;;;;;-1.00;74.30;;;;;;5041930;28;19978;-80
2022/01/18 02:14:22;;;;;;;;;;;-1.00;74.10;;;;;;5050951;28;19966;-75
2022/01/18 02:22:20;;;;;;;;;;;-0.90;73.10;;;;;;5055942;28;20304;-76
2022/01/18 02:24:47;;;;;;;;;;;-0.90;72.90;;;;;;5020100;28;19952;-79
2022/01/18 02:27:16;;;;;;;;;;;-0.90;72.50;;;;;;5033180;28;19924;-76
2022/01/18 02:29:43;;;;;;;;;;;-1.00;72.40;;;;;;5040576;28;19921;-80
2022/01/18 02:32:10;;;;;;;;;;;-1.00;72.20;;;;;;5046693;28;19925;-76
2022/01/18 02:34:37;;;;;;;;;;;-1.00;72.10;;;;;;5051382;28;20396;-80
2022/01/18 02:37:04;;;;;;;;;;;-1.00;72.40;;;;;;5047994;28;19924;-77
2022/01/18 02:39:31;;;;;;;;;;;-1.10;72.40;;;;;;5039205;28;19924;-76
2022/01/18 02:41:59;;;;;;;;;;;-1.20;72.40;;;;;;5052011;28;20434;-80
2022/01/18 02:44:27;;;;;;;;;;;-1.20;72.80;;;;;;5050065;28;19925;-76
2022/01/18 02:46:54;;;;;;;;;;;-1.30;73.30;;;;;;5047292;28;19932;-76
2022/01/18 02:49:21;;;;;;;;;;;-1.30;73.40;;;;;;5047969;28;19921;-76
2022/01/18 02:51:48;;;;;;;;;;;-1.30;73.30;;;;;;5054022;28;19920;-80
2022/01/18 02:54:17;;;;;;;;;;;-1.30;73.30;;;;;;5055630;28;19974;-78
2022/01/18 02:56:51;;;;;;;;;;;-1.30;73.30;;;;;;5057005;28;19920;-76
2022/01/18 02:59:29;;;;;;;;;;;-1.30;73.50;;;;;;5038335;28;19921;-76
2022/01/18 03:04:43;;;;;;;;;;;-1.30;73.40;;;;;;5051721;28;19974;-77
2022/01/18 03:07:10;;;;;;;;;;;-1.20;73.30;;;;;;5071095;28;20376;-77
2022/01/18 03:09:37;;;;;;;;;;;-1.20;72.90;;;;;;5053439;28;20383;-76
2022/01/18 03:12:05;;;;;;;;;;;-1.20;72.70;;;;;;5063241;28;20377;-76
2022/01/18 03:14:32;;;;;;;;;;;-1.20;72.80;;;;;;5051370;28;19927;-75
2022/01/18 03:16:59;;;;;;;;;;;-1.10;72.50;;;;;;5033562;28;19928;-75
2022/01/18 03:19:26;;;;;;;;;;;-1.10;72.50;;;;;;5069150;28;19971;-76
2022/01/18 03:21:55;;;;;;;;;;;-1.10;72.20;;;;;;5054778;28;19928;-76
2022/01/18 03:29:38;;;;;;;;;;;-1.10;71.60;;;;;;5034960;28;19948;-76
2022/01/18 03:32:06;;;;;;;;;;;-1.20;72.00;;;;;;5049378;28;20397;-80
2022/01/18 03:34:33;;;;;;;;;;;-1.00;71.00;;;;;;5059417;28;19992;-75
2022/01/18 03:37:00;;;;;;;;;;;-1.20;72.10;;;;;;5056132;28;19924;-76
2022/01/18 03:39:27;;;;;;;;;;;-1.30;72.80;;;;;;5037400;28;19921;-80
2022/01/18 03:41:58;;;;;;;;;;;-1.20;72.50;;;;;;5053035;28;20332;-76
2022/01/18 03:44:26;;;;;;;;;;;-1.30;72.40;;;;;;5048764;28;19955;-80
2022/01/18 03:46:53;;;;;;;;;;;-1.30;72.70;;;;;;5033507;28;19967;-77
2022/01/18 03:49:23;;;;;;;;;;;-1.20;73.30;;;;;;5063324;28;20446;-80
2022/01/18 03:51:50;;;;;;;;;;;-1.20;72.90;;;;;;5042754;28;19924;-80
2022/01/18 03:54:22;;;;;;;;;;;-1.20;73.00;;;;;;5042692;28;19929;-78
2022/01/18 03:56:49;;;;;;;;;;;-1.10;72.90;;;;;;5046023;28;19928;-76
2022/01/18 03:59:16;;;;;;;;;;;-1.10;72.90;;;;;;5071455;28;20376;-80
2022/01/18 04:01:42;;;;;;;;;;;-1.10;73.10;;;;;;5073865;28;19927;-76
2022/01/18 04:04:12;;;;;;;;;;;-1.00;72.90;;;;;;5074236;28;20327;-77
2022/01/18 04:06:39;;;;;;;;;;;-1.00;72.90;;;;;;5055714;28;19932;-80
2022/01/18 04:09:06;;;;;;;;;;;-1.00;72.60;;;;;;5063921;28;20368;-76
2022/01/18 04:11:32;;;;;;;;;;;-1.00;72.50;;;;;;5046647;28;19971;-75
2022/01/18 04:13:59;;;;;;;;;;;-0.90;72.10;;;;;;5047112;28;19924;-80
2022/01/18 04:16:26;;;;;;;;;;;-0.80;72.00;;;;;;5069563;28;20319;-81
2022/01/18 04:19:20;;;;;;;;;;;-0.80;71.90;;;;;;5023572;28;19921;-80
2022/01/18 04:27:14;;;;;;;;;;;-1.00;72.30;;;;;;5021580;28;19955;-77
2022/01/18 04:29:41;;;;;;;;;;;-1.10;72.30;;;;;;5034302;28;20377;-80
2022/01/18 04:32:08;;;;;;;;;;;-1.30;72.80;;;;;;5048414;28;19982;-76
2022/01/18 04:34:36;;;;;;;;;;;-1.40;73.90;;;;;;5049325;28;19975;-77
2022/01/18 04:37:03;;;;;;;;;;;-1.50;74.80;;;;;;5017348;28;20134;-80
2022/01/18 04:39:36;;;;;;;;;;;-1.50;75.10;;;;;;5025639;28;19925;-76
2022/01/18 04:42:03;;;;;;;;;;;-1.60;74.90;;;;;;5016503;28;19925;-76
2022/01/18 04:50:02;;;;;;;;;;;-1.70;75.50;;;;;;5022679;28;19925;-75
2022/01/18 04:52:29;;;;;;;;;;;-1.70;75.90;;;;;;5021996;28;19929;-75
2022/01/18 04:55:01;;;;;;;;;;;-1.70;76.00;;;;;;5012022;28;19933;-76
2022/01/18 05:00:14;;;;;;;;;;;-1.70;76.40;;;;;;5026280;28;20443;-80
2022/01/18 05:02:40;;;;;;;;;;;-1.60;76.10;;;;;;5041740;28;19967;-75
2022/01/18 05:05:10;;;;;;;;;;;-1.60;76.10;;;;;;5031622;28;19928;-75
2022/01/18 05:07:38;;;;;;;;;;;-1.60;76.10;;;;;;5033675;28;19921;-75
2022/01/18 05:10:06;;;;;;;;;;;-1.40;76.20;;;;;;5030752;28;20001;-77
2022/01/18 05:12:44;;;;;;;;;;;-1.40;76.20;;;;;;5024636;28;19929;-75
2022/01/18 05:15:41;;;;;;;;;;;-1.40;75.70;;;;;;5029143;28;19928;-75
2022/01/18 05:18:59;;;;;;;;;;;-1.30;75.10;;;;;;5032234;28;19921;-75
2022/01/18 05:23:43;;;;;;;;;;;-1.40;74.20;;;;;;5039390;28;19924;-77
2022/01/18 05:26:10;;;;;;;;;;;-1.50;74.40;;;;;;5059623;28;19924;-79
2022/01/18 05:28:37;;;;;;;;;;;-1.60;75.30;;;;;;5069536;28;19920;-75
2022/01/18 05:31:03;;;;;;;;;;;-1.60;75.30;;;;;;5072248;28;19974;-79
2022/01/18 05:33:30;;;;;;;;;;;-1.60;75.30;;;;;;5040965;28;19930;-75
2022/01/18 05:35:57;;;;;;;;;;;-1.70;75.50;;;;;;5070755;28;20323;-76
2022/01/18 05:38:24;;;;;;;;;;;-1.60;75.50;;;;;;5042393;28;19986;-76
2022/01/18 05:40:51;;;;;;;;;;;-1.60;76.20;;;;;;5048083;28;19990;-79
2022/01/18 05:43:18;;;;;;;;;;;-1.70;76.10;;;;;;5052476;28;19920;-76
2022/01/18 05:45:45;;;;;;;;;;;-1.60;76.30;;;;;;5030592;28;20347;-76
2022/01/18 05:48:12;;;;;;;;;;;-1.50;77.00;;;;;;5051749;28;19928;-75
2022/01/18 05:50:39;;;;;;;;;;;-1.50;76.60;;;;;;5065089;28;20446;-76
2022/01/18 05:53:06;;;;;;;;;;;-1.30;75.60;;;;;;5057435;28;19953;-76
2022/01/18 05:55:33;;;;;;;;;;;-1.20;74.90;;;;;;5054627;28;19924;-77
2022/01/18 05:58:00;;;;;;;;;;;-1.10;74.50;;;;;;5054190;28;19978;-78
2022/01/18 06:00:28;;;;;;;;;;;-1.10;73.90;;;;;;5038418;28;20404;-75
2022/01/18 06:08:08;;;;;;;;;;;-1.30;73.50;;;;;;5070391;28;19966;-76
2022/01/18 06:10:38;;;;;;;;;;;-1.40;75.70;;;;;;5054761;28;19921;-78
2022/01/18 06:13:07;;;;;;;;;;;-1.50;75.60;;;;;;5053401;28;19920;-75
2022/01/18 06:15:35;;;;;;;;;;;-1.50;76.10;;;;;;5069809;28;19998;-80
2022/01/18 06:18:02;;;;;;;;;;;-1.60;76.10;;;;;;5066027;28;20296;-75
2022/01/18 06:20:29;;;;;;;;;;;-1.60;76.40;;;;;;5050789;28;19932;-75
2022/01/18 06:22:56;;;;;;;;;;;-1.60;76.70;;;;;;5044520;28;20000;-76
2022/01/18 06:25:28;;;;;;;;;;;-1.60;76.90;;;;;;5027625;28;19932;-76
2022/01/18 06:27:55;;;;;;;;;;;-1.50;77.80;;;;;;5021591;28;19925;-75
2022/01/18 06:30:22;;;;;;;;;;;-1.40;77.40;;;;;;5042173;28;20389;-79
2022/01/18 06:32:48;;;;;;;;;;;-1.30;77.00;;;;;;5044041;28;19921;-77
2022/01/18 06:35:17;;;;;;;;;;;-1.30;77.10;;;;;;5041354;28;19927;-74
2022/01/18 06:37:44;;;;;;;;;;;-1.20;76.70;;;;;;5041253;28;20108;-75
2022/01/18 06:40:11;;;;;;;;;;;-1.20;76.10;;;;;;5031295;28;19921;-78
2022/01/18 06:42:38;;;;;;;;;;;-1.20;75.70;;;;;;5022476;28;19970;-75
2022/01/18 06:45:06;;;;;;;;;;;-1.20;75.40;;;;;;5044479;28;19935;-76
2022/01/18 06:47:33;;;;;;;;;;;-1.20;75.30;;;;;;5028048;28;19925;-75
2022/01/18 06:50:00;;;;;;;;;;;-1.20;75.80;;;;;;5053092;28;20011;-78
2022/01/18 06:52:27;;;;;;;;;;;-1.10;75.50;;;;;;5040910;28;19928;-75
2022/01/18 06:54:54;;;;;;;;;;;-1.20;74.60;;;;;;5038672;28;19929;-75
2022/01/18 06:57:21;;;;;;;;;;;-1.30;74.40;;;;;;5013655;28;19935;-76
2022/01/18 06:59:48;;;;;;;;;;;-1.30;74.30;;;;;;5043161;28;19920;-78
2022/01/18 07:02:15;;;;;;;;;;;-1.40;74.80;;;;;;5029466;28;19978;-75
2022/01/18 07:04:41;;;;;;;;;;;-1.40;75.40;;;;;;5047917;28;19925;-75
2022/01/18 07:07:08;;;;;;;;;;;-1.40;75.60;;;;;;5056494;28;19921;-76
2022/01/18 07:09:35;;;;;;;;;;;-1.40;75.80;;;;;;5071382;28;19921;-76
2022/01/18 07:12:08;;;;;;;;;;;-1.40;76.20;;;;;;5041042;28;19975;-76
2022/01/18 07:14:35;;;;;;;;;;;-1.50;76.10;;;;;;5053684;28;19928;-75
2022/01/18 07:17:02;;;;;;;;;;;-1.40;77.30;;;;;;5053901;28;19924;-76
2022/01/18 07:19:33;;;;;;;;;;;-1.30;76.90;;;;;;5052316;28;19936;-77
2022/01/18 07:22:00;;;;;;;;;;;-1.30;76.30;;;;;;5035477;28;19921;-75
2022/01/18 07:24:45;;;;;;;;;;;-1.30;76.30;;;;;;5057775;28;20437;-77
2022/01/18 07:27:13;;;;;;;;;;;-1.10;75.80;;;;;;5074230;28;19977;-75
2022/01/18 07:29:41;;;;;;;;;;;-1.00;75.40;;;;;;5044121;28;19921;-76
2022/01/18 07:32:09;;;;;;;;;;;-1.00;75.10;;;;;;5041098;28;19982;-76
2022/01/18 07:34:40;;;;;;;;;;;-1.00;74.80;;;;;;5061068;28;19924;-75
2022/01/18 07:37:09;;;;;;;;;;;-1.00;74.80;;;;;;5036752;28;19921;-75
2022/01/18 07:39:35;;;;;;;;;;;-1.10;75.20;;;;;;5042919;28;19924;-75
2022/01/18 07:42:02;;;;;;;;;;;-1.10;75.30;;;;;;5045575;28;20007;-76
2022/01/18 07:44:30;;;;;;;;;;;-1.10;75.90;;;;;;5019295;28;19931;-76
2022/01/18 07:46:57;;;;;;;;;;;-1.00;76.00;;;;;;5033951;28;19921;-75
2022/01/18 07:49:23;;;;;;;;;;;-0.90;75.70;;;;;;5052149;28;20344;-77
2022/01/18 07:51:50;;;;;;;;;;;-0.80;75.30;;;;;;5056870;28;20381;-75
2022/01/18 07:54:17;;;;;;;;;;;-0.70;75.30;;;;;;5051355;28;19920;-76
2022/01/18 07:56:44;;;;;;;;;;;-0.40;74.70;;;;;;5058911;28;19974;-79
2022/01/18 07:59:12;;;;;;;;;;;0.10;73.20;;;;;;5059189;28;19943;-77
2022/01/18 08:01:41;;;;;;;;;;;0.30;72.00;;;;;;5031448;28;19983;-76
2022/01/18 08:04:08;;;;;;;;;;;0.50;71.60;;;;;;5061510;28;20365;-77
2022/01/18 08:06:36;;;;;;;;;;;0.70;71.20;;;;;;5073636;28;19982;-78
2022/01/18 08:09:02;;;;;;;;;;;1.00;70.50;;;;;;5041736;28;19955;-76
2022/01/18 08:11:29;;;;;;;;;;;1.20;69.60;;;;;;5043280;28;19924;-76
2022/01/18 08:13:57;;;;;;;;;;;1.50;68.90;;;;;;5035572;28;19921;-76
2022/01/18 08:19:01;;;;;;;;;;;1.70;67.10;;;;;;5049302;28;19920;-76
2022/01/18 08:21:34;;;;;;;;;;;2.00;66.80;;;;;;5042207;28;19921;-79
2022/01/18 08:24:01;;;;;;;;;;;2.20;65.70;;;;;;5065716;28;19986;-76
2022/01/18 08:26:27;;;;;;;;;;;2.40;65.10;;;;;;5051984;28;19920;-76
2022/01/18 08:28:54;;;;;;;;;;;2.70;64.90;;;;;;5054281;28;19932;-79
2022/01/18 08:31:21;;;;;;;;;;;2.90;64.50;;;;;;5045201;28;20339;-75
2022/01/18 08:33:48;;;;;;;;;;;3.10;64.40;;;;;;5070479;28;19920;-75
2022/01/18 08:36:15;;;;;;;;;;;3.20;65.30;;;;;;5062277;28;19924;-76
2022/01/18 08:38:42;;;;;;;;;;;3.40;65.80;;;;;;5040188;28;19921;-76
2022/01/18 08:41:09;;;;;;;;;;;3.60;64.80;;;;;;5052604;28;19943;-76
2022/01/18 08:43:37;;;;;;;;;;;3.80;64.10;;;;;;5043366;28;19925;-76
2022/01/18 08:46:04;;;;;;;;;;;4.00;62.60;;;;;;5051188;28;19986;-76
2022/01/18 08:48:34;;;;;;;;;;;4.20;62.10;;;;;;5054498;28;19921;-76
2022/01/18 08:51:02;;;;;;;;;;;4.30;61.80;;;;;;5053393;28;19929;-76
2022/01/18 08:53:29;;;;;;;;;;;4.50;61.10;;;;;;5040479;28;20380;-76
2022/01/18 08:55:55;;;;;;;;;;;4.70;60.90;;;;;;5042488;28;19928;-76
2022/01/18 08:58:22;;;;;;;;;;;4.80;60.00;;;;;;5051547;28;19985;-76
2022/01/18 09:00:49;;;;;;;;;;;4.90;58.90;;;;;;5073157;28;20411;-76
2022/01/18 09:03:16;;;;;;;;;;;5.10;59.20;;;;;;5072828;28;19955;-76
2022/01/18 09:05:44;;;;;;;;;;;5.20;57.40;;;;;;5040149;28;19927;-75
2022/01/18 09:08:13;;;;;;;;;;;5.40;57.30;;;;;;5036167;28;19921;-78
2022/01/18 09:10:41;;;;;;;;;;;5.50;55.50;;;;;;5052662;28;19929;-76
2022/01/18 09:13:08;;;;;;;;;;;5.70;55.00;;;;;;5047369;28;20414;-78
2022/01/18 09:15:34;;;;;;;;;;;5.80;55.00;;;;;;5056823;28;20462;-78
2022/01/18 09:18:03;;;;;;;;;;;5.90;55.50;;;;;;5066994;28;19921;-76
2022/01/18 09:20:30;;;;;;;;;;;6.10;54.40;;;;;;5047651;28;20438;-76
2022/01/18 09:22:57;;;;;;;;;;;6.20;54.30;;;;;;5054482;28;19996;-77
2022/01/18 09:25:26;;;;;;;;;;;6.30;54.50;;;;;;5063727;28;19960;-76
2022/01/18 09:27:56;;;;;;;;;;;6.50;54.00;;;;;;5054463;28;22405;-76
2022/01/18 09:30:25;;;;;;;;;;;6.60;54.00;;;;;;5041903;28;19932;-78
2022/01/18 09:32:53;;;;;;;;;;;6.70;52.60;;;;;;5050596;28;20351;-75
2022/01/18 09:35:20;;;;;;;;;;;6.80;52.90;;;;;;5032458;28;20389;-76
2022/01/18 09:37:48;;;;;;;;;;;6.90;52.50;;;;;;5036107;28;19933;-76
2022/01/18 09:40:19;;;;;;;;;;;7.10;52.60;;;;;;5024286;28;19929;-78
2022/01/18 09:42:46;;;;;;;;;;;7.20;52.80;;;;;;5053500;28;20531;-76
2022/01/18 09:45:14;;;;;;;;;;;7.40;52.80;;;;;;5045716;28;19924;-78
2022/01/18 09:47:42;;;;;;;;;;;7.50;52.30;;;;;;5049299;28;20351;-76
2022/01/18 09:50:14;;;;;;;;;;;7.60;52.30;;;;;;5051390;28;19925;-76
2022/01/18 09:52:41;;;;;;;;;;;7.70;51.80;;;;;;5041505;28;19980;-76
2022/01/18 09:55:09;;;;;;;;;;;7.90;51.60;;;;;;5041096;28;20393;-78
2022/01/18 09:57:36;;;;;;;;;;;7.90;51.50;;;;;;5043600;28;19978;-77
2022/01/18 10:00:04;;;;;;;;;;;8.00;51.40;;;;;;5051057;28;19928;-76
2022/01/18 10:02:31;;;;;;;;;;;8.00;50.30;;;;;;5065588;28;19928;-77
2022/01/18 10:05:00;;;;;;;;;;;7.90;50.70;;;;;;5068841;28;19924;-76
2022/01/18 10:07:33;;;;;;;;;;;8.10;51.70;;;;;;5016651;28;19938;-76
2022/01/18 10:10:00;;;;;;;;;;;8.20;51.30;;;;;;5058106;28;20407;-77
2022/01/18 10:12:27;;;;;;;;;;;8.30;50.70;;;;;;5071192;28;19947;-79
2022/01/18 10:15:00;;;;;;;;;;;8.40;49.50;;;;;;5043041;28;19932;-77
2022/01/18 10:17:28;;;;;;;;;;;8.50;50.60;;;;;;5042793;28;20400;-76
2022/01/18 10:20:01;;;;;;;;;;;8.60;50.40;;;;;;5041383;28;19924;-77
2022/01/18 10:22:35;;;;;;;;;;;8.60;50.60;;;;;;5060311;28;19929;-79
2022/01/18 10:25:21;;;;;;;;;;;8.80;51.30;;;;;;5048821;28;20377;-78
2022/01/18 10:27:51;;;;;;;;;;;8.80;49.30;;;;;;5050418;28;19932;-76
2022/01/18 10:30:32;;;;;;;;;;;8.70;49.60;;;;;;5053765;28;19924;-77
2022/01/18 10:33:13;;;;;;;;;;;8.80;50.10;;;;;;5053120;28;19982;-78
2022/01/18 10:36:00;;;;;;;;;;;9.00;49.70;;;;;;5051512;28;20403;-76
2022/01/18 10:38:26;;;;;;;;;;;9.20;49.20;;;;;;5061022;28;19932;-76
2022/01/18 10:40:53;;;;;;;;;;;9.40;49.80;;;;;;5053261;28;19974;-76
2022/01/18 10:43:30;;;;;;;;;;;9.50;49.10;;;;;;5071552;28;20285;-76
2022/01/18 10:46:10;;;;;;;;;;;9.50;49.00;;;;;;5040163;28;20297;-79
2022/01/18 10:48:47;;;;;;;;;;;9.60;48.80;;;;;;5039906;28;19924;-76
2022/01/18 10:51:27;;;;;;;;;;;9.60;48.70;;;;;;5055669;28;19928;-76
2022/01/18 10:54:01;;;;;;;;;;;9.70;48.80;;;;;;5027619;28;19974;-76
2022/01/18 10:56:39;;;;;;;;;;;9.80;49.20;;;;;;5038009;28;19929;-78
2022/01/18 10:59:06;;;;;;;;;;;10.00;48.90;;;;;;5050322;28;19936;-76
2022/01/18 11:01:33;;;;;;;;;;;10.10;48.00;;;;;;5017866;28;19925;-76
2022/01/18 11:04:11;;;;;;;;;;;10.20;48.40;;;;;;5037062;28;20351;-76
2022/01/18 11:06:39;;;;;;;;;;;10.30;49.40;;;;;;5042425;28;20340;-77
2022/01/18 11:09:07;;;;;;;;;;;10.40;47.50;;;;;;5033132;28;19925;-77
2022/01/18 11:11:42;;;;;;;;;;;10.50;47.30;;;;;;5050308;28;19925;-77
2022/01/18 11:14:11;;;;;;;;;;;10.60;47.60;;;;;;5025255;28;19924;-77
2022/01/18 11:16:42;;;;;;;;;;;10.80;47.20;;;;;;5051755;28;19975;-77
2022/01/18 11:19:44;;;;;;;;;;;10.80;45.70;;;;;;5068359;28;20419;-79
2022/01/18 11:22:06;;;;;;;;;;;10.90;45.40;;;;;;5054909;28;19970;-79
2022/01/18 11:24:35;;;;;;;;;;;11.10;45.10;;;;;;5050242;28;19925;-76
2022/01/18 11:27:06;;;;;;;;;;;11.30;43.60;;;;;;5049192;28;19925;-79
2022/01/18 11:29:34;;;;;;;;;;;11.40;43.10;;;;;;5051215;28;19932;-77
2022/01/18 11:32:02;;;;;;;;;;;11.50;43.40;;;;;;5049590;28;20305;-77
2022/01/18 11:34:45;;;;;;;;;;;11.70;42.20;;;;;;5051743;28;19925;-77
2022/01/18 11:37:33;;;;;;;;;;;11.80;41.60;;;;;;5040590;28;19925;-77
2022/01/18 11:40:05;;;;;;;;;;;11.90;41.20;;;;;;5050389;28;19929;-76
2022/01/18 11:42:50;;;;;;;;;;;12.00;40.80;;;;;;5034824;28;20393;-76
2022/01/18 11:45:26;;;;;;;;;;;12.10;40.50;;;;;;5047531;28;19924;-78
2022/01/18 11:48:12;;;;;;;;;;;12.20;39.50;;;;;;5043419;28;20396;-76
2022/01/18 11:50:42;;;;;;;;;;;12.30;40.60;;;;;;5065642;28;19925;-77
2022/01/18 11:53:38;;;;;;;;;;;12.50;39.60;;;;;;5053764;28;19924;-76
2022/01/18 11:56:07;;;;;;;;;;;12.50;39.80;;;;;;5070310;28;20363;-77
2022/01/18 11:58:34;;;;;;;;;;;12.60;39.70;;;;;;5039593;28;19928;-80
2022/01/18 12:01:02;;;;;;;;;;;12.70;39.60;;;;;;5054664;28;19929;-76
2022/01/18 12:03:30;;;;;;;;;;;12.80;40.00;;;;;;5060939;28;19924;-77
2022/01/18 12:05:59;;;;;;;;;;;12.90;38.70;;;;;;5059821;28;20332;-77
2022/01/18 12:08:29;;;;;;;;;;;12.90;38.80;;;;;;5058096;28;19925;-79
2022/01/18 12:10:56;;;;;;;;;;;13.00;38.90;;;;;;5044271;28;19929;-80
2022/01/18 12:13:24;;;;;;;;;;;13.00;37.70;;;;;;5049051;28;19929;-80
2022/01/18 12:15:56;;;;;;;;;;;13.00;38.30;;;;;;5074173;28;19924;-78
2022/01/18 12:18:24;;;;;;;;;;;13.10;37.80;;;;;;5044195;28;19924;-76
2022/01/18 12:20:52;;;;;;;;;;;13.10;38.00;;;;;;5041113;28;20446;-78
2022/01/18 12:23:26;;;;;;;;;;;13.20;38.10;;;;;;5039128;28;19932;-79
2022/01/18 12:26:02;;;;;;;;;;;13.30;37.90;;;;;;5030484;28;19925;-76
2022/01/18 12:34:30;;;;;;;25.27;12.73;;;13.60;37.50;;;;;;5040442;28;19931;-77
2022/01/18 12:37:17;;;;;;;29.13;17.73;;;13.70;38.00;;;;;;5028161;28;20763;-79
2022/01/18 12:39:50;;;;;;;26.83;17.60;;;13.70;37.80;;;;;;5045530;28;20999;-77
2022/01/18 12:45:10;;;;;;;27.02;16.30;;;13.80;36.80;;;;;;5036929;28;20418;-76
2022/01/18 12:47:43;;;;;;;27.15;16.88;;;13.90;36.30;;;;;;5039837;28;20416;-79
2022/01/18 12:50:11;;;;;;;25.52;16.83;;;13.90;36.50;;;;;;5042872;28;20417;-77
2022/01/18 12:52:45;;;;;;;25.33;16.52;;;13.90;36.70;;;;;;5036857;28;20921;-80
2022/01/18 12:55:27;;;;;;;26.00;15.73;;;13.90;37.00;;;;;;5047369;28;20434;-80
2022/01/18 12:58:20;;;;;;;28.38;17.85;;;13.90;36.60;;;;;;5029751;28;20821;-76
2022/01/18 13:00:53;;;;;;;24.30;16.50;;;13.90;37.00;;;;;;5038047;28;20463;-77
2022/01/18 13:03:25;;;;;;;29.10;16.98;;;14.10;37.30;;;;;;5059360;28;20414;-77
2022/01/18 13:05:57;;;;;;;29.73;17.33;;;14.10;36.00;;;;;;5047891;28;20894;-78
2022/01/18 13:08:37;;;;;;;27.77;16.87;;;14.10;35.90;;;;;;5035631;28;20409;-78
2022/01/18 13:11:05;;;;;;;27.83;17.48;;;14.20;37.00;;;;;;5070673;28;20403;-80
2022/01/18 13:13:33;;;;;;;26.80;16.38;;;14.10;36.10;;;;;;5043237;28;20819;-78
2022/01/18 13:27:12;;;;;;;;;;;13.90;36.80;;;;;;5072683;28;19924;-77
2022/01/18 13:29:39;;;;;;;;;;;13.90;36.60;;;;;;5030662;28;19939;-77
2022/01/18 13:32:12;;;;;;;;;;;13.90;36.20;;;;;;5041674;28;19929;-78
2022/01/18 13:34:41;;;;;;;;;;;13.90;36.50;;;;;;5044197;28;19921;-77
2022/01/18 13:37:11;;;;;;;;;;;14.00;37.00;;;;;;5038699;28;19995;-77
2022/01/18 13:39:44;;;;;;;;;;;13.90;36.30;;;;;;5062318;28;19985;-77
2022/01/18 13:42:11;;;;;;;;;;;13.90;36.70;;;;;;5054878;28;19966;-77
2022/01/18 13:44:39;;;;;;;;;;;13.90;36.70;;;;;;5053379;28;20027;-77
2022/01/18 13:47:12;;;;;;;;;;;14.00;36.50;;;;;;5051393;28;20345;-77
2022/01/18 13:49:39;;;;;;;27.48;13.40;;;13.90;36.30;;;;;;5033719;28;19928;-77
2022/01/18 13:52:08;;;;;;;;;;;14.00;36.80;;;;;;5046594;28;20969;-80
2022/01/18 13:54:44;;;;;;;;;;;13.90;35.70;;;;;;5068628;28;20400;-78
2022/01/18 13:57:12;;;;;;;;;;;13.90;36.70;;;;;;5054867;28;19928;-78
2022/01/18 13:59:39;;;;;;;;;;;14.00;36.70;;;;;;5044248;28;19920;-80
2022/01/18 14:02:10;;;;;;;;;;;14.00;36.00;;;;;;5056606;28;20376;-77
2022/01/18 14:04:37;;;;;;;;;;;13.90;36.20;;;;;;5059462;28;19929;-78
2022/01/18 14:07:05;;;;;;;23.17;12.70;;;13.90;36.10;;;;;;5039640;28;19927;-77
2022/01/18 14:09:32;;;;;;;;;;;13.80;36.30;;;;;;5035911;28;20052;-80
2022/01/18 14:11:59;;;;;;;;;;;13.80;36.00;;;;;;5065094;28;19920;-77
2022/01/18 14:14:29;;;;;;;;;;;13.70;35.80;;;;;;5071141;28;20415;-80
2022/01/18 14:16:58;;;;;;;;;;;13.70;35.50;;;;;;5051588;28;19925;-76
2022/01/18 14:19:35;;;;;;;;;;;13.80;35.80;;;;;;5067235;28;20395;-76
2022/01/18 14:22:03;;;;;;;;;;;13.70;35.60;;;;;;5057618;28;19920;-77
2022/01/18 14:24:38;;;;;;;19.95;10.13;;;13.70;36.10;;;;;;5034681;28;19924;-77
2022/01/18 14:27:12;;;;;;;24.75;11.93;;;13.60;36.20;;;;;;5031151;28;20931;-76
2022/01/18 14:29:42;;;;;;;26.33;11.85;;;13.60;36.10;;;;;;5062199;28;20577;-76
2022/01/18 14:32:12;;;;;;;26.30;11.00;;;13.60;36.00;;;;;;5045493;28;20053;-77
2022/01/18 14:34:42;;;;;;;23.02;11.38;;;13.40;35.70;;;;;;5032388;28;20486;-78
2022/01/18 14:37:13;;;;;;;23.75;11.98;;;13.40;36.10;;;;;;5036229;28;20083;-80
2022/01/18 14:39:57;;;;;;;;;;;13.40;36.70;;;;;;5062222;28;20110;-80
2022/01/18 14:42:26;;;;;;;;;;;13.30;36.30;;;;;;5060173;28;19920;-76
2022/01/18 14:45:18;;;;;;;;;;;13.20;36.40;;;;;;5050708;28;20282;-77
2022/01/18 14:47:45;;;;;;;;;;;13.10;36.50;;;;;;5032705;28;19929;-77
2022/01/18 14:50:13;;;;;;;;;;;13.00;36.70;;;;;;5033579;28;19967;-77
2022/01/18 14:52:40;;;;;;;;;;;12.90;36.90;;;;;;5047170;28;19929;-78
2022/01/18 14:55:14;;;;;;;;;;;12.90;36.90;;;;;;5050997;28;20404;-76
2022/01/18 14:57:41;;;;;;;;;;;12.90;37.10;;;;;;5041666;28;19928;-80
2022/01/18 15:00:10;;;;;;;;;;;12.90;37.20;;;;;;5037370;28;19920;-77
2022/01/18 15:02:37;;;;;;;;;;;12.80;37.20;;;;;;5052232;28;19920;-80
2022/01/18 15:05:07;;;;;;;;;;;12.80;37.00;;;;;;5053474;28;19925;-76
2022/01/18 15:07:38;;;;;;;;;;;12.70;36.50;;;;;;5060782;28;19921;-77
2022/01/18 15:10:06;;;;;;;;;;;12.70;36.90;;;;;;5047793;28;20393;-78
2022/01/18 15:12:33;;;;;;;;;;;12.60;36.90;;;;;;5033467;28;20423;-76
2022/01/18 15:15:00;;;;;;;;;;;12.60;37.30;;;;;;5064998;28;19927;-78
2022/01/18 15:17:27;;;;;;;;;;;12.60;37.60;;;;;;5039938;28;19921;-76
2022/01/18 15:19:54;;;;;;;;;;;12.50;37.60;;;;;;5022176;28;19991;-77
2022/01/18 15:22:21;;;;;;;;;;;12.50;37.20;;;;;;5039284;28;19935;-77
2022/01/18 15:24:48;;;;;;;;;;;12.40;37.10;;;;;;5023793;28;19939;-77
2022/01/18 15:27:16;;;;;;;;;;;12.40;37.50;;;;;;5034624;28;19990;-80
2022/01/18 15:29:44;;;;;;;;;;;12.30;37.70;;;;;;5041896;28;19933;-76
2022/01/18 15:32:11;;;;;;;;;;;12.30;37.60;;;;;;5033434;28;19925;-78
2022/01/18 15:34:41;;;;;;;;;;;12.20;37.20;;;;;;5039113;28;19925;-78
2022/01/18 15:37:09;;;;;;;;;;;12.20;37.50;;;;;;5037676;28;19968;-79
2022/01/18 15:39:36;;;;;;;;;;;12.10;37.50;;;;;;5037884;28;19932;-76
2022/01/18 15:42:03;;;;;;;;;;;12.10;38.00;;;;;;5013838;28;19921;-76
2022/01/18 15:44:30;;;;;;;;;;;12.00;38.20;;;;;;5027359;28;20476;-79
2022/01/18 15:46:57;;;;;;;;;;;11.90;38.20;;;;;;5020267;28;19960;-79
2022/01/18 15:49:25;;;;;;;;;;;11.80;38.40;;;;;;5030266;28;19937;-76